Time;durP1;ratioP1;P1;durP2;ratioP2;P2;SDS_P1;SDS_P2;PMS_P1;PMS_P2;Temp;Humidity;BMP_temperature;BMP_pressure;BME280_temperature;BME280_humidity;BME280_pressure;Samples;Min_cycle;Max_cycle;Signal;HPM_P1;HPM_P2
2021/04/22 00:02:24;;;;;;;4.85;3.80;;;19.00;44.80;;;;;;5118602;27;20054;-39
2021/04/22 00:04:51;;;;;;;4.28;3.50;;;19.00;44.80;;;;;;5132132;27;20079;-39
2021/04/22 00:07:19;;;;;;;6.30;4.55;;;19.00;44.80;;;;;;5135805;27;20523;-39
2021/04/22 00:09:48;;;;;;;4.72;3.85;;;19.00;44.80;;;;;;5134199;27;20073;-39
2021/04/22 00:12:14;;;;;;;5.88;4.20;;;19.00;44.80;;;;;;5135755;27;20054;-39
2021/04/22 00:14:41;;;;;;;5.10;3.97;;;19.00;44.80;;;;;;5132515;27;20061;-40
2021/04/22 00:17:09;;;;;;;6.05;3.97;;;19.00;44.80;;;;;;5132952;27;20065;-39
2021/04/22 00:19:36;;;;;;;4.40;3.75;;;19.00;44.80;;;;;;5133844;27;20124;-37
2021/04/22 00:22:04;;;;;;;5.63;4.28;;;19.00;44.80;;;;;;5135417;27;20406;-37
2021/04/22 00:24:31;;;;;;;5.03;3.60;;;19.00;44.80;;;;;;5132439;27;20047;-37
2021/04/22 00:26:58;;;;;;;4.35;3.40;;;19.00;44.80;;;;;;5135170;27;20054;-38
2021/04/22 00:29:24;;;;;;;4.97;3.90;;;19.00;44.80;;;;;;5111463;28;20495;-38
2021/04/22 00:31:51;;;;;;;4.75;3.67;;;19.00;44.80;;;;;;5115692;27;20054;-37
2021/04/22 00:34:18;;;;;;;5.70;4.18;;;19.00;44.80;;;;;;5120246;27;20039;-38
2021/04/22 00:36:44;;;;;;;4.90;4.07;;;19.00;44.80;;;;;;5116692;27;20050;-38
2021/04/22 00:39:11;;;;;;;5.40;4.00;;;19.00;44.80;;;;;;5117851;27;20047;-38
2021/04/22 00:41:38;;;;;;;4.72;3.80;;;19.00;44.80;;;;;;5134691;27;20072;-38
2021/04/22 00:44:08;;;;;;;4.95;3.75;;;19.00;44.80;;;;;;5115637;27;20106;-38
2021/04/22 00:46:36;;;;;;;5.50;4.05;;;19.00;44.80;;;;;;5134026;27;20051;-38
2021/04/22 00:49:04;;;;;;;6.30;4.32;;;19.00;44.80;;;;;;5134106;27;20051;-37
2021/04/22 00:51:31;;;;;;;6.43;4.25;;;19.00;44.80;;;;;;5134210;27;20057;-38
2021/04/22 00:53:58;;;;;;;6.35;4.10;;;19.00;44.80;;;;;;5134607;27;20509;-38
2021/04/22 00:56:25;;;;;;;4.63;3.65;;;19.00;44.80;;;;;;5134329;27;20047;-38
2021/04/22 00:58:51;;;;;;;5.22;3.63;;;19.00;44.80;;;;;;5131843;27;20095;-38
2021/04/22 01:01:18;;;;;;;4.95;3.67;;;19.00;44.80;;;;;;5133301;27;20053;-38
2021/04/22 01:03:46;;;;;;;5.65;4.07;;;19.00;44.80;;;;;;5133167;27;20051;-38
2021/04/22 01:06:12;;;;;;;5.43;3.80;;;19.00;44.80;;;;;;5133255;27;20051;-38
2021/04/22 01:08:39;;;;;;;5.38;3.83;;;19.00;44.80;;;;;;5131919;27;20410;-39
2021/04/22 01:11:07;;;;;;;5.22;3.85;;;19.00;44.80;;;;;;5134422;27;20103;-38
2021/04/22 01:13:34;;;;;;;5.55;3.85;;;19.00;44.80;;;;;;5130141;27;20439;-38
2021/04/22 01:16:00;;;;;;;5.28;3.60;;;19.00;44.80;;;;;;5131543;27;20045;-38
2021/04/22 01:18:27;;;;;;;5.68;4.00;;;19.00;44.80;;;;;;5134075;27;20047;-38
2021/04/22 01:20:54;;;;;;;5.13;3.70;;;19.00;44.80;;;;;;5132609;27;20091;-38
2021/04/22 01:23:21;;;;;;;4.82;3.35;;;19.00;44.80;;;;;;5132773;27;20399;-38
2021/04/22 01:25:50;;;;;;;4.53;3.75;;;19.00;44.80;;;;;;5132252;27;20039;-38
2021/04/22 01:28:21;;;;;;;4.35;3.53;;;19.00;44.80;;;;;;5128750;27;20465;-38
2021/04/22 01:30:51;;;;;;;4.55;3.60;;;19.00;44.80;;;;;;5116852;27;20043;-38
2021/04/22 01:33:24;;;;;;;4.53;3.78;;;19.00;44.80;;;;;;5114604;27;20446;-38
2021/04/22 01:35:55;;;;;;;5.82;4.20;;;19.00;44.80;;;;;;5122458;27;20096;-39
2021/04/22 01:38:23;;;;;;;5.68;3.95;;;19.00;44.80;;;;;;5131535;27;20058;-38
2021/04/22 01:40:50;;;;;;;5.25;3.92;;;19.00;44.80;;;;;;5117425;27;20497;-39
2021/04/22 01:43:17;;;;;;;5.20;3.85;;;19.00;44.80;;;;;;5130042;27;20055;-39
2021/04/22 01:45:43;;;;;;;4.07;3.30;;;19.00;44.80;;;;;;5132740;27;20047;-38
2021/04/22 01:48:10;;;;;;;5.30;3.80;;;19.00;44.80;;;;;;5133927;27;20055;-38
2021/04/22 01:50:37;;;;;;;4.80;3.47;;;19.00;44.80;;;;;;5131652;27;20391;-38
2021/04/22 01:53:06;;;;;;;5.72;3.85;;;19.00;44.80;;;;;;5131300;27;20054;-38
2021/04/22 01:55:42;;;;;;;4.15;3.35;;;19.00;44.80;;;;;;5131553;27;20043;-37
2021/04/22 01:58:13;;;;;;;5.07;3.67;;;19.00;44.80;;;;;;5130991;27;20050;-38
2021/04/22 02:00:45;;;;;;;4.55;3.42;;;19.00;44.80;;;;;;5132422;27;20043;-37
2021/04/22 02:03:12;;;;;;;5.95;4.15;;;19.00;44.80;;;;;;5133833;27;20058;-37
2021/04/22 02:05:40;;;;;;;4.93;3.83;;;19.00;44.80;;;;;;5130818;27;20055;-37
2021/04/22 02:08:08;;;;;;;4.68;3.95;;;19.00;45.40;;;;;;5132139;27;20054;-38
2021/04/22 02:10:39;;;;;;;4.80;3.97;;;19.00;44.80;;;;;;5130538;27;20517;-38
2021/04/22 02:13:08;;;;;;;5.53;3.65;;;19.00;44.80;;;;;;5131837;27;20755;-37
2021/04/22 02:15:36;;;;;;;5.70;4.00;;;19.00;44.80;;;;;;5131735;27;20053;-37
2021/04/22 02:18:03;;;;;;;5.35;3.90;;;19.00;44.80;;;;;;5129687;27;20407;-37
2021/04/22 02:20:30;;;;;;;5.75;3.97;;;19.00;44.80;;;;;;5114905;27;20043;-38
2021/04/22 02:22:57;;;;;;;5.60;4.13;;;19.00;44.80;;;;;;5131808;27;20047;-38
2021/04/22 02:25:26;;;;;;;4.32;3.35;;;19.00;44.80;;;;;;5131882;27;20044;-38
2021/04/22 02:27:54;;;;;;;4.80;3.50;;;19.00;44.80;;;;;;5122972;27;20043;-37
2021/04/22 02:30:31;;;;;;;5.57;3.88;;;19.00;44.80;;;;;;5121604;27;20056;-37
2021/04/22 02:33:00;;;;;;;5.63;3.70;;;19.00;44.80;;;;;;5122788;28;20043;-37
2021/04/22 02:35:30;;;;;;;5.28;3.90;;;19.00;44.80;;;;;;5123103;27;20043;-38
2021/04/22 02:37:58;;;;;;;4.35;3.45;;;19.00;44.80;;;;;;5132139;27;20043;-38
2021/04/22 02:40:28;;;;;;;4.72;3.95;;;19.00;44.80;;;;;;5132795;28;20517;-39
2021/04/22 02:42:57;;;;;;;6.63;4.32;;;19.00;44.80;;;;;;5132539;28;20494;-40
2021/04/22 02:45:28;;;;;;;4.53;3.60;;;19.00;44.80;;;;;;5131938;28;20402;-39
2021/04/22 02:47:55;;;;;;;5.38;3.70;;;19.00;44.80;;;;;;5130465;28;20487;-38
2021/04/22 02:50:24;;;;;;;4.82;3.15;;;19.00;44.80;;;;;;5130379;28;20050;-38
2021/04/22 02:52:51;;;;;;;4.75;3.60;;;19.00;44.80;;;;;;5128811;28;20050;-38
2021/04/22 02:55:18;;;;;;;4.93;4.00;;;19.00;44.80;;;;;;5129808;28;20059;-38
2021/04/22 02:58:05;;;;;;;5.30;3.60;;;19.00;44.80;;;;;;5129958;28;20039;-38
2021/04/22 03:00:32;;;;;;;4.50;3.67;;;19.00;44.80;;;;;;5132540;28;20116;-38
2021/04/22 03:02:59;;;;;;;4.50;3.88;;;19.00;44.80;;;;;;5128844;28;20613;-37
2021/04/22 03:05:26;;;;;;;4.30;3.50;;;19.00;44.80;;;;;;5128873;28;20044;-38
2021/04/22 03:07:53;;;;;;;4.28;3.65;;;19.00;44.80;;;;;;5130406;28;20036;-37
2021/04/22 03:10:22;;;;;;;4.25;3.63;;;19.00;44.70;;;;;;5136040;27;20058;-37
2021/04/22 03:12:50;;;;;;;3.85;3.40;;;19.00;44.80;;;;;;5134174;27;20054;-37
2021/04/22 03:15:18;;;;;;;4.43;3.60;;;19.00;44.80;;;;;;5135183;27;20059;-38
2021/04/22 03:17:46;;;;;;;4.57;3.42;;;19.00;44.70;;;;;;5135373;27;20056;-38
2021/04/22 03:20:14;;;;;;;4.10;3.20;;;19.00;44.80;;;;;;5135504;27;20496;-38
2021/04/22 03:22:42;;;;;;;4.60;3.60;;;19.00;44.80;;;;;;5117256;27;20051;-38
2021/04/22 03:25:11;;;;;;;5.30;3.40;;;19.00;44.80;;;;;;5118193;27;20415;-38
2021/04/22 03:27:38;;;;;;;4.30;3.50;;;19.00;44.80;;;;;;5133041;27;20047;-38
2021/04/22 03:30:07;;;;;;;5.90;3.50;;;19.00;44.80;;;;;;5122232;27;20050;-37
2021/04/22 03:32:34;;;;;;;3.65;2.97;;;19.00;44.80;;;;;;5119295;27;20048;-38
2021/04/22 03:35:01;;;;;;;5.53;3.72;;;19.00;44.80;;;;;;5109921;27;20406;-38
2021/04/22 03:37:27;;;;;;;4.57;3.40;;;19.00;44.80;;;;;;5125302;27;20051;-38
2021/04/22 03:39:54;;;;;;;4.22;3.63;;;19.00;44.80;;;;;;5117764;27;20414;-38
2021/04/22 03:42:21;;;;;;;4.22;3.25;;;19.00;44.70;;;;;;5134018;27;20047;-38
2021/04/22 03:44:48;;;;;;;5.00;3.67;;;19.00;44.80;;;;;;5135094;27;20043;-38
2021/04/22 03:47:14;;;;;;;3.30;3.00;;;19.00;45.40;;;;;;5134093;27;20058;-37
2021/04/22 03:49:43;;;;;;;3.90;3.17;;;19.00;44.80;;;;;;5134790;27;20047;-38
2021/04/22 03:52:10;;;;;;;4.47;3.22;;;19.00;44.70;;;;;;5135874;27;20043;-38
2021/04/22 03:54:37;;;;;;;4.50;3.50;;;19.00;45.30;;;;;;5135818;27;20050;-38
2021/04/22 03:57:05;;;;;;;4.93;3.75;;;19.00;44.80;;;;;;5133105;27;20051;-38
2021/04/22 03:59:32;;;;;;;4.70;3.35;;;19.00;44.80;;;;;;5135441;27;20047;-38
2021/04/22 04:01:59;;;;;;;5.75;3.88;;;19.00;44.80;;;;;;5135887;27;20035;-38
2021/04/22 04:04:26;;;;;;;5.05;3.67;;;19.00;44.80;;;;;;5135394;27;20513;-38
2021/04/22 04:06:53;;;;;;;4.15;3.35;;;19.00;44.70;;;;;;5135844;27;20043;-38
2021/04/22 04:09:20;;;;;;;4.82;3.25;;;19.00;44.70;;;;;;5135882;27;20047;-38
2021/04/22 04:11:47;;;;;;;3.60;3.17;;;19.00;44.70;;;;;;5133635;27;20104;-38
2021/04/22 04:14:14;;;;;;;5.03;3.47;;;19.00;44.70;;;;;;5116821;27;20048;-37
2021/04/22 04:16:40;;;;;;;5.22;3.78;;;19.00;44.70;;;;;;5117201;27;20403;-38
2021/04/22 04:19:08;;;;;;;3.60;3.05;;;19.00;45.40;;;;;;5115882;27;20130;-38
2021/04/22 04:21:35;;;;;;;4.68;3.70;;;19.00;44.80;;;;;;5118831;28;20061;-37
2021/04/22 04:24:02;;;;;;;4.78;3.40;;;19.00;44.80;;;;;;5112101;28;20446;-37
2021/04/22 04:26:28;;;;;;;4.50;3.70;;;19.00;44.80;;;;;;5115993;27;20070;-37
2021/04/22 04:28:55;;;;;;;4.57;3.17;;;19.00;44.80;;;;;;5128086;27;20058;-37
2021/04/22 04:31:22;;;;;;;4.35;3.15;;;19.00;44.70;;;;;;5131345;27;20502;-37
2021/04/22 04:33:50;;;;;;;4.95;3.80;;;19.00;44.70;;;;;;5124567;27;20047;-38
2021/04/22 04:36:17;;;;;;;4.45;3.40;;;19.00;44.80;;;;;;5119881;27;20050;-39
2021/04/22 04:38:44;;;;;;;5.13;3.55;;;19.00;44.80;;;;;;5123594;27;20039;-38
2021/04/22 04:41:11;;;;;;;4.85;3.78;;;19.00;44.80;;;;;;5113147;28;20046;-39
2021/04/22 04:43:38;;;;;;;4.20;3.08;;;19.00;44.80;;;;;;5122268;27;20096;-39
2021/04/22 04:46:05;;;;;;;4.20;3.53;;;19.00;44.80;;;;;;5135187;27;20043;-40
2021/04/22 04:48:32;;;;;;;4.10;3.22;;;19.00;44.70;;;;;;5133635;27;20051;-42
2021/04/22 04:50:58;;;;;;;4.25;3.60;;;19.00;44.80;;;;;;5131240;27;20047;-38
2021/04/22 04:53:25;;;;;;;3.65;2.97;;;19.00;44.70;;;;;;5134599;27;20046;-39
2021/04/22 04:55:52;;;;;;;3.90;3.15;;;19.00;44.80;;;;;;5131898;27;20043;-38
2021/04/22 04:58:19;;;;;;;3.97;3.40;;;19.00;44.80;;;;;;5134781;27;20042;-38
2021/04/22 05:00:45;;;;;;;4.35;3.30;;;19.00;44.80;;;;;;5133406;27;20051;-38
2021/04/22 05:03:12;;;;;;;4.68;3.40;;;19.00;44.70;;;;;;5134455;27;20051;-38
2021/04/22 05:05:39;;;;;;;4.10;3.17;;;19.00;44.80;;;;;;5133909;27;20123;-38
2021/04/22 05:08:06;;;;;;;4.68;3.42;;;19.00;44.70;;;;;;5134231;27;20434;-38
2021/04/22 05:10:32;;;;;;;4.63;3.40;;;19.00;44.70;;;;;;5134439;27;20077;-38
2021/04/22 05:12:59;;;;;;;5.00;3.75;;;19.00;44.70;;;;;;5112614;28;20047;-38
2021/04/22 05:15:26;;;;;;;4.35;3.05;;;19.00;44.70;;;;;;5110697;28;20066;-39
2021/04/22 05:17:53;;;;;;;3.80;3.03;;;19.00;44.70;;;;;;5117101;27;20047;-39
2021/04/22 05:20:19;;;;;;;5.40;3.55;;;19.00;44.70;;;;;;5114650;27;20043;-39
2021/04/22 05:22:46;;;;;;;5.15;3.70;;;19.00;44.70;;;;;;5117407;27;20414;-39
2021/04/22 05:25:13;;;;;;;4.90;3.63;;;19.00;44.70;;;;;;5116891;27;20048;-39
2021/04/22 05:27:40;;;;;;;4.13;3.22;;;19.00;44.70;;;;;;5125605;27;20049;-39
2021/04/22 05:30:10;;;;;;;4.47;3.50;;;19.00;44.70;;;;;;5131165;27;20070;-39
2021/04/22 05:32:37;;;;;;;4.07;3.00;;;19.00;44.70;;;;;;5115286;27;20058;-41
2021/04/22 05:35:04;;;;;;;4.25;3.25;;;19.00;44.70;;;;;;5124805;27;20112;-39
2021/04/22 05:37:50;;;;;;;4.45;3.47;;;19.00;44.60;;;;;;5125838;27;20046;-39
2021/04/22 05:40:19;;;;;;;5.90;3.35;;;19.00;44.70;;;;;;5132952;27;20134;-39
2021/04/22 05:42:46;;;;;;;3.88;3.00;;;19.00;44.60;;;;;;5130103;27;20096;-39
2021/04/22 05:45:15;;;;;;;3.95;3.30;;;19.00;44.60;;;;;;5131243;27;20047;-39
2021/04/22 05:47:43;;;;;;;3.67;2.78;;;19.00;44.60;;;;;;5132597;27;20139;-39
2021/04/22 05:50:10;;;;;;;3.75;3.08;;;19.00;44.60;;;;;;5132335;27;20039;-39
2021/04/22 05:52:37;;;;;;;4.43;3.42;;;19.00;44.60;;;;;;5130942;27;20047;-39
2021/04/22 05:55:05;;;;;;;4.18;3.20;;;19.00;44.60;;;;;;5133153;27;20043;-39
2021/04/22 05:57:31;;;;;;;5.05;3.60;;;19.00;44.60;;;;;;5133492;27;20442;-39
2021/04/22 05:59:58;;;;;;;4.70;3.38;;;19.00;44.60;;;;;;5130798;27;20052;-39
2021/04/22 06:02:25;;;;;;;3.80;3.15;;;19.00;44.60;;;;;;5115127;27;20046;-39
2021/04/22 06:04:52;;;;;;;4.28;3.33;;;19.00;44.60;;;;;;5115346;27;20051;-38
2021/04/22 06:07:19;;;;;;;4.57;3.13;;;19.00;44.60;;;;;;5114291;27;20047;-38
2021/04/22 06:09:46;;;;;;;4.45;3.53;;;19.00;44.60;;;;;;5114017;27;20047;-38
2021/04/22 06:12:13;;;;;;;4.25;3.05;;;19.00;44.60;;;;;;5131500;27;20047;-38
2021/04/22 06:14:40;;;;;;;4.45;3.33;;;19.00;44.60;;;;;;5116148;27;20055;-38
2021/04/22 06:17:07;;;;;;;4.28;3.25;;;19.00;44.60;;;;;;5116085;27;20065;-38
2021/04/22 06:19:33;;;;;;;4.05;3.33;;;19.00;44.60;;;;;;5116132;27;20126;-38
2021/04/22 06:22:01;;;;;;;4.55;3.60;;;19.00;44.60;;;;;;5129457;27;20050;-38
2021/04/22 06:24:28;;;;;;;4.25;2.92;;;19.00;44.60;;;;;;5113510;27;20069;-38
2021/04/22 06:26:55;;;;;;;6.05;3.95;;;19.00;44.60;;;;;;5119826;27;20058;-39
2021/04/22 06:29:23;;;;;;;3.20;2.90;;;19.00;44.60;;;;;;5124282;27;20058;-38
2021/04/22 06:31:50;;;;;;;4.78;3.30;;;19.00;44.60;;;;;;5123088;27;20065;-38
2021/04/22 06:34:17;;;;;;;3.08;2.58;;;19.00;44.60;;;;;;5122431;27;20405;-38
2021/04/22 06:36:44;;;;;;;3.50;2.97;;;19.00;44.60;;;;;;5130378;27;20066;-38
2021/04/22 06:39:11;;;;;;;5.15;3.42;;;19.00;44.60;;;;;;5130457;27;20047;-38
2021/04/22 06:41:38;;;;;;;3.70;3.30;;;19.00;44.60;;;;;;5130392;28;20505;-38
2021/04/22 06:44:05;;;;;;;4.20;3.35;;;19.00;44.60;;;;;;5118121;27;20039;-38
2021/04/22 06:46:34;;;;;;;3.92;3.25;;;19.00;44.60;;;;;;5137959;27;20058;-38
2021/04/22 06:49:01;;;;;;;4.22;3.17;;;19.00;44.60;;;;;;5138077;27;20043;-38
2021/04/22 06:51:28;;;;;;;4.43;3.13;;;19.10;44.60;;;;;;5136929;27;20043;-38
2021/04/22 06:53:55;;;;;;;4.00;3.30;;;19.00;44.60;;;;;;5138207;27;20043;-38
2021/04/22 06:56:22;;;;;;;3.75;3.10;;;19.10;44.60;;;;;;5122517;27;20479;-38
2021/04/22 06:58:48;;;;;;;3.83;2.97;;;19.10;44.70;;;;;;5138119;27;20406;-38
2021/04/22 07:01:15;;;;;;;5.18;3.33;;;19.10;44.60;;;;;;5121340;27;20059;-38
2021/04/22 07:03:42;;;;;;;3.38;2.97;;;19.10;44.60;;;;;;5139368;27;20078;-38
2021/04/22 07:06:10;;;;;;;4.43;2.97;;;19.10;44.60;;;;;;5121637;27;20057;-37
2021/04/22 07:08:39;;;;;;;4.65;3.42;;;19.10;44.70;;;;;;5136063;27;20448;-38
2021/04/22 07:11:06;;;;;;;4.22;2.85;;;19.10;44.90;;;;;;5136619;27;20047;-37
2021/04/22 07:13:33;;;;;;;3.65;2.88;;;19.10;45.00;;;;;;5123717;27;20421;-39
2021/04/22 07:15:59;;;;;;;3.33;2.75;;;19.10;45.00;;;;;;5122415;27;20040;-38
2021/04/22 07:18:26;;;;;;;4.30;3.40;;;19.10;44.90;;;;;;5121275;27;20080;-37
2021/04/22 07:20:53;;;;;;;4.97;2.53;;;19.10;44.90;;;;;;5131902;27;20047;-37
2021/04/22 07:23:20;;;;;;;5.50;3.70;;;19.10;44.80;;;;;;5137842;27;20047;-38
2021/04/22 07:25:48;;;;;;;3.05;2.75;;;19.10;44.80;;;;;;5135285;27;20047;-39
2021/04/22 07:28:15;;;;;;;4.22;3.20;;;19.10;44.80;;;;;;5139254;27;20091;-39
2021/04/22 07:30:42;;;;;;;5.25;2.85;;;19.10;44.80;;;;;;5118989;27;20046;-38
2021/04/22 07:33:10;;;;;;;4.90;3.10;;;19.10;44.80;;;;;;5136906;27;20043;-39
2021/04/22 07:35:38;;;;;;;3.85;3.13;;;19.10;44.80;;;;;;5135235;27;20386;-38
2021/04/22 07:38:08;;;;;;;3.72;2.88;;;19.10;44.80;;;;;;5137732;27;20043;-38
2021/04/22 07:40:35;;;;;;;4.03;3.00;;;19.10;44.80;;;;;;5120614;27;20506;-38
2021/04/22 07:43:02;;;;;;;3.83;2.88;;;19.10;44.80;;;;;;5137847;27;20051;-38
2021/04/22 07:45:33;;;;;;;5.70;2.90;;;19.10;44.80;;;;;;5139178;27;20451;-38
2021/04/22 07:48:02;;;;;;;3.85;2.70;;;19.10;44.80;;;;;;5139066;27;20049;-37
2021/04/22 07:50:29;;;;;;;4.30;3.33;;;19.10;44.80;;;;;;5137934;27;20122;-38
2021/04/22 07:52:58;;;;;;;4.10;2.90;;;19.10;44.80;;;;;;5136480;27;20058;-37
2021/04/22 07:55:28;;;;;;;4.22;2.92;;;19.10;44.80;;;;;;5118459;27;20065;-38
2021/04/22 07:57:56;;;;;;;3.35;2.60;;;19.10;44.80;;;;;;5118425;27;20050;-38
2021/04/22 08:00:24;;;;;;;3.58;2.90;;;19.10;44.80;;;;;;5117751;27;20051;-38
2021/04/22 08:02:52;;;;;;;4.45;3.28;;;19.10;44.80;;;;;;5134020;27;20043;-46
2021/04/22 08:05:22;;;;;;;3.42;2.67;;;19.10;44.80;;;;;;5117930;27;20051;-39
2021/04/22 08:08:06;;;;;;;5.45;2.75;;;19.10;44.80;;;;;;5134129;27;20058;-42
2021/04/22 08:10:35;;;;;;;4.10;3.17;;;19.10;44.80;;;;;;5117171;27;20043;-39
2021/04/22 08:13:04;;;;;;;3.88;3.10;;;19.10;44.80;;;;;;5133699;27;20078;-40
2021/04/22 08:15:32;;;;;;;3.88;2.85;;;19.10;44.80;;;;;;5100296;27;20135;-39
2021/04/22 08:18:00;;;;;;;3.20;2.63;;;19.10;44.80;;;;;;5134066;27;20051;-39
2021/04/22 08:20:28;;;;;;;4.22;3.22;;;19.10;44.80;;;;;;5118341;27;20131;-40
2021/04/22 08:22:57;;;;;;;4.07;2.92;;;19.10;44.80;;;;;;5117400;27;20054;-39
2021/04/22 08:25:53;;;;;;;3.88;3.13;;;19.10;44.80;;;;;;5116602;27;20048;-38
2021/04/22 08:28:22;;;;;;;3.72;2.80;;;19.10;44.80;;;;;;5132871;27;20062;-39
2021/04/22 08:30:59;;;;;;;3.88;2.97;;;19.10;44.80;;;;;;5133856;27;20047;-39
2021/04/22 08:33:27;;;;;;;3.60;2.47;;;19.10;44.80;;;;;;5133742;27;20055;-38
2021/04/22 08:35:54;;;;;;;3.85;2.72;;;19.10;44.90;;;;;;5133559;27;20051;-39
2021/04/22 08:38:22;;;;;;;3.60;2.65;;;19.10;44.90;;;;;;5131479;27;20051;-39
2021/04/22 08:40:50;;;;;;;5.35;3.10;;;19.10;44.90;;;;;;5132122;27;20047;-38
2021/04/22 08:43:17;;;;;;;3.72;2.90;;;19.10;44.80;;;;;;5135013;27;20423;-39
2021/04/22 08:45:45;;;;;;;4.25;3.33;;;19.10;44.80;;;;;;5133593;27;20137;-37
2021/04/22 08:48:13;;;;;;;3.70;3.08;;;19.10;44.80;;;;;;5116755;27;20133;-38
2021/04/22 08:50:47;;;;;;;3.10;2.53;;;19.10;44.80;;;;;;5133182;27;20425;-38
2021/04/22 08:53:29;;;;;;;3.15;2.78;;;19.10;44.80;;;;;;5134603;27;20065;-37
2021/04/22 08:55:57;;;;;;;3.38;2.85;;;19.10;44.80;;;;;;5132805;27;20045;-38
2021/04/22 08:58:25;;;;;;;3.88;2.95;;;19.10;44.80;;;;;;5122520;27;20051;-37
2021/04/22 09:00:58;;;;;;;3.30;2.80;;;19.10;44.80;;;;;;5117202;27;20437;-37
2021/04/22 09:03:25;;;;;;;4.35;3.22;;;19.10;44.80;;;;;;5117530;27;20065;-37
2021/04/22 09:05:52;;;;;;;3.78;2.60;;;19.20;44.90;;;;;;5127306;27;20448;-38
2021/04/22 09:08:39;;;;;;;3.30;2.55;;;19.10;44.80;;;;;;5123813;27;20491;-38
2021/04/22 09:11:07;;;;;;;3.15;2.85;;;19.10;44.80;;;;;;5125838;27;20151;-38
2021/04/22 09:13:35;;;;;;;2.90;2.60;;;19.10;44.80;;;;;;5111086;28;20050;-39
2021/04/22 09:16:09;;;;;;;4.03;3.10;;;19.20;44.90;;;;;;5116032;27;20054;-39
2021/04/22 09:18:50;;;;;;;4.80;3.15;;;19.10;44.80;;;;;;5125288;27;20051;-39
2021/04/22 09:21:20;;;;;;;3.78;3.08;;;19.20;44.90;;;;;;5131993;27;20071;-38
2021/04/22 09:24:04;;;;;;;3.38;2.75;;;19.20;44.90;;;;;;5131275;27;20047;-38
2021/04/22 09:26:51;;;;;;;3.05;2.70;;;19.20;44.90;;;;;;5132049;27;20043;-38
2021/04/22 09:29:47;;;;;;;4.13;2.97;;;19.20;44.90;;;;;;5133613;27;20043;-38
2021/04/22 09:32:14;;;;;;;3.25;2.75;;;19.20;44.90;;;;;;5096316;27;20043;-39
2021/04/22 09:34:45;;;;;;;3.35;2.80;;;19.20;44.90;;;;;;5128045;27;20051;-38
2021/04/22 09:37:12;;;;;;;3.67;2.90;;;19.20;44.90;;;;;;5131815;27;20055;-38
2021/04/22 09:39:39;;;;;;;3.17;2.67;;;19.20;44.90;;;;;;5133585;27;20055;-38
2021/04/22 09:42:10;;;;;;;6.20;2.80;;;19.20;44.90;;;;;;5132062;27;20043;-38
2021/04/22 09:44:40;;;;;;;3.28;2.72;;;19.20;44.90;;;;;;5132156;27;20043;-39
2021/04/22 09:47:18;;;;;;;3.95;3.00;;;19.20;44.90;;;;;;5133803;27;20058;-39
2021/04/22 09:49:51;;;;;;;3.40;2.80;;;19.20;44.90;;;;;;5130670;27;20049;-39
2021/04/22 09:52:19;;;;;;;3.60;2.85;;;19.20;44.90;;;;;;5121133;27;20044;-40
2021/04/22 09:54:50;;;;;;;3.90;2.78;;;19.20;45.50;;;;;;5125917;27;20043;-39
2021/04/22 09:57:29;;;;;;;3.60;2.80;;;19.20;44.80;;;;;;5121041;27;20047;-41
2021/04/22 09:59:58;;;;;;;3.85;3.08;;;19.20;44.90;;;;;;5114819;27;20043;-38
2021/04/22 10:02:27;;;;;;;3.65;3.08;;;19.20;44.80;;;;;;5114963;27;20047;-38
2021/04/22 10:04:55;;;;;;;4.20;3.08;;;19.20;44.90;;;;;;5114882;27;20048;-38
2021/04/22 10:07:29;;;;;;;3.70;3.15;;;19.20;44.90;;;;;;5096755;28;20137;-39
2021/04/22 10:09:58;;;;;;;3.72;3.38;;;19.20;44.90;;;;;;5125276;27;20046;-38
2021/04/22 10:12:28;;;;;;;3.42;2.90;;;19.20;44.90;;;;;;5131756;27;20047;-38
2021/04/22 10:14:56;;;;;;;4.18;3.17;;;19.20;44.90;;;;;;5130419;27;20410;-39
2021/04/22 10:17:25;;;;;;;4.50;2.90;;;19.20;44.90;;;;;;5131990;27;20044;-39
2021/04/22 10:20:11;;;;;;;3.97;2.92;;;19.20;44.90;;;;;;5132649;27;20043;-38
2021/04/22 10:22:41;;;;;;;4.63;2.65;;;19.20;44.90;;;;;;5129589;27;20134;-39
2021/04/22 10:25:10;;;;;;;3.75;2.88;;;19.20;44.90;;;;;;5130355;27;20070;-39
2021/04/22 10:27:39;;;;;;;3.60;2.97;;;19.20;44.90;;;;;;5133150;27;20047;-38
2021/04/22 10:30:11;;;;;;;4.63;2.50;;;19.20;44.90;;;;;;5114675;28;20066;-39
2021/04/22 10:32:40;;;;;;;3.08;2.67;;;19.20;44.90;;;;;;5130076;27;20043;-38
2021/04/22 10:35:14;;;;;;;3.42;2.85;;;19.20;44.90;;;;;;5113151;28;20414;-38
2021/04/22 10:37:42;;;;;;;3.60;2.80;;;19.20;44.90;;;;;;5131534;27;20045;-38
2021/04/22 10:40:13;;;;;;;3.45;2.80;;;19.20;44.90;;;;;;5130407;27;20035;-38
2021/04/22 10:42:40;;;;;;;3.33;2.60;;;19.20;44.90;;;;;;5131530;28;20042;-39
2021/04/22 10:45:10;;;;;;;2.88;2.58;;;19.20;44.90;;;;;;5129289;28;20055;-38
2021/04/22 10:47:37;;;;;;;3.50;3.00;;;19.20;44.90;;;;;;5130241;28;20055;-38
2021/04/22 10:50:16;;;;;;;3.92;3.08;;;19.20;44.90;;;;;;5114772;28;20050;-38
2021/04/22 10:52:45;;;;;;;5.82;3.17;;;19.20;44.90;;;;;;5114358;28;20043;-38
2021/04/22 10:55:18;;;;;;;3.33;2.67;;;19.20;44.90;;;;;;5114326;28;20035;-38
2021/04/22 10:57:45;;;;;;;3.67;2.85;;;19.20;44.90;;;;;;5115378;28;20043;-38
2021/04/22 11:00:14;;;;;;;3.05;2.65;;;19.20;44.90;;;;;;5113893;28;20047;-38
2021/04/22 11:02:48;;;;;;;3.95;3.13;;;19.20;44.90;;;;;;5113955;28;20040;-38
2021/04/22 11:05:33;;;;;;;3.28;2.63;;;19.20;44.90;;;;;;5113088;28;20043;-38
2021/04/22 11:08:04;;;;;;;3.10;2.78;;;19.30;45.00;;;;;;5114468;28;20043;-38
2021/04/22 11:10:37;;;;;;;3.53;2.78;;;19.20;44.90;;;;;;5116306;28;20043;-38
2021/04/22 11:13:20;;;;;;;2.85;2.55;;;19.20;44.90;;;;;;5130015;28;20075;-38
2021/04/22 11:15:56;;;;;;;2.70;2.40;;;19.30;45.00;;;;;;5088868;28;20052;-38
2021/04/22 11:18:46;;;;;;;2.55;2.35;;;19.30;45.00;;;;;;5090959;28;20044;-39
2021/04/22 11:21:29;;;;;;;2.92;2.55;;;19.30;45.00;;;;;;5091375;28;20407;-38
2021/04/22 11:24:01;;;;;;;3.28;2.67;;;19.30;45.10;;;;;;5090899;28;20044;-38
2021/04/22 11:26:37;;;;;;;3.30;2.85;;;19.30;45.10;;;;;;5089623;28;20098;-37
2021/04/22 11:29:17;;;;;;;3.28;2.60;;;19.30;45.10;;;;;;5076303;28;20041;-38
2021/04/22 11:32:27;;;;;;;4.00;2.60;;;19.30;45.10;;;;;;5083301;28;20502;-38
2021/04/22 11:34:58;;;;;;;3.85;2.92;;;19.30;45.10;;;;;;5094296;28;20131;-38
2021/04/22 11:37:32;;;;;;;4.90;2.78;;;19.30;45.10;;;;;;5087967;28;20051;-37
2021/04/22 11:40:18;;;;;;;5.78;2.70;;;19.30;45.10;;;;;;5093503;28;20044;-38
2021/04/22 11:42:49;;;;;;;5.80;2.75;;;19.30;45.10;;;;;;5094421;28;20048;-38
2021/04/22 11:45:21;;;;;;;3.90;2.70;;;19.30;45.10;;;;;;5081872;28;20385;-37
2021/04/22 11:47:51;;;;;;;8.60;2.55;;;19.30;45.20;;;;;;5078117;28;20048;-38
2021/04/22 11:50:21;;;;;;;6.15;3.40;;;19.30;45.20;;;;;;5078090;28;20135;-38
2021/04/22 11:52:53;;;;;;;4.70;2.67;;;19.30;45.20;;;;;;5077987;28;20074;-38
2021/04/22 11:55:27;;;;;;;4.10;3.08;;;19.30;45.20;;;;;;5078014;28;20400;-38
2021/04/22 11:58:05;;;;;;;7.47;3.03;;;19.30;45.20;;;;;;5088386;28;20044;-38
2021/04/22 12:00:37;;;;;;;7.38;3.08;;;19.30;45.20;;;;;;5083405;28;20052;-38
2021/04/22 12:03:04;;;;;;;11.52;2.92;;;19.30;45.20;;;;;;5077770;28;20052;-38
2021/04/22 12:05:33;;;;;;;5.03;3.05;;;19.30;45.30;;;;;;5085278;28;20050;-38
2021/04/22 12:08:04;;;;;;;5.60;2.78;;;19.30;45.30;;;;;;5091701;28;20044;-38
2021/04/22 12:10:34;;;;;;;8.15;3.20;;;19.30;45.30;;;;;;5094252;28;20059;-38
2021/04/22 12:13:07;;;;;;;7.30;2.90;;;19.30;45.40;;;;;;5091840;28;20123;-38
2021/04/22 12:15:37;;;;;;;8.10;3.47;;;19.30;45.40;;;;;;5130742;27;20059;-38
2021/04/22 12:18:07;;;;;;;7.07;3.13;;;19.30;45.40;;;;;;5135045;27;20071;-38
2021/04/22 12:20:34;;;;;;;11.60;3.28;;;19.30;45.40;;;;;;5134272;27;20043;-39
2021/04/22 12:23:00;;;;;;;11.90;3.13;;;19.30;45.50;;;;;;5135266;27;20043;-38
2021/04/22 12:25:27;;;;;;;10.25;3.65;;;19.30;45.60;;;;;;5132711;27;20047;-38
2021/04/22 12:28:02;;;;;;;15.07;4.20;;;19.30;45.60;;;;;;5132201;27;20049;-38
2021/04/22 12:30:49;;;;;;;14.25;3.60;;;19.30;45.60;;;;;;5133267;27;20049;-38
2021/04/22 12:33:19;;;;;;;11.63;3.45;;;19.30;45.60;;;;;;5134992;27;20043;-38
2021/04/22 12:35:58;;;;;;;12.10;3.80;;;19.30;45.60;;;;;;5130684;27;20135;-38
2021/04/22 12:38:30;;;;;;;12.65;3.10;;;19.30;45.60;;;;;;5128929;27;20479;-37
2021/04/22 12:40:59;;;;;;;15.98;3.60;;;19.30;45.60;;;;;;5116917;27;20047;-38
2021/04/22 12:43:29;;;;;;;12.85;3.63;;;19.30;45.60;;;;;;5116719;27;20433;-38
2021/04/22 12:46:19;;;;;;;15.95;3.75;;;19.30;45.60;;;;;;5119667;27;20403;-38
2021/04/22 12:49:00;;;;;;;12.85;3.17;;;19.30;45.60;;;;;;5126688;27;20049;-38
2021/04/22 12:51:33;;;;;;;12.55;3.15;;;19.40;45.70;;;;;;5122738;27;20055;-38
2021/04/22 12:54:00;;;;;;;18.52;3.40;;;19.40;45.70;;;;;;5132946;27;20043;-38
2021/04/22 12:56:29;;;;;;;8.57;3.00;;;19.40;45.80;;;;;;5134782;27;20409;-38
2021/04/22 12:58:56;;;;;;;13.77;3.50;;;19.40;45.90;;;;;;5134332;27;20035;-38